Terminal Aerodrome Forecast
Issued by NWS Wilmington, OH

Current Version | Previous Version | Graphics & Text | Print | Product List | Glossary On
Versions: 1 2 3 4 5 6 7 8 9 10 11 12 13 14 15 16 17 18 19 20 21 22 23 24 25
000
FTUS41 KILN 290524
TAFILN
TAF
KILN 290524Z 2906/3006 34003KT P6SM SCT110 BKN200
     FM290800 03005KT 2SM BR FEW110 BKN250
     FM291400 04006KT P6SM SCT040
     FM300000 VRB03KT P6SM SCT080=

USA.gov is the U.S. government's official web portal to all federal, state and local government web resources and services.